My Meet Scores
Beyza Cosentino, St. Charles Gymnastics Academy - MyMeetScores.com
Top100 | Top Teams | Upcoming Meets | Completed Meets | Latest | Add Scores | Help| Support | Bookmark and Share

Beyza Cosentino, St. Charles Gymnastics Academy
Personal Bests
LevelVault BarsBeamFloorAA
38.9007.650 8.7008.25033.500
48.4000.000 8.8008.00024.875
XD9.3507.700 9.1009.50034.500
XG9.3509.450 9.5009.45037.300
XP9.6008.900 9.0009.32535.975
Meet Scores
Date Meet Team Session Level Division Vault Bars Beam Floor AA
2022-04-08 Illinois Xcel State Championships 2022 St. Charles Gymnastics Academy 04A XD Jr 8.800 12 7.450 29* 7.300 32 9.050 11T 32.600 30T
2022-02-18 BIG Classic 2022 St. Charles Gymnastics Academy 7A XD Senior A 8.850 1 7.700 8T 9.100 1 8.850 8 34.500 4
2022-02-11 SCGA Classic 2022 St. Charles Gymnastics Academy SA6 XD All 9.300 2T 7.400 6 8.500 5 9.175 2 34.375 5
2022-01-28 The Circus! 2022 St. Charles Gymnastics Academy R3 XD Senior 8.750 2 6.925 12 8.950 6 9.250 8T 33.875 8
2022-01-21 King Arthur Invitational 2022 St. Charles Gymnastics Academy 10 XD Junior 9.350 1 7.400 6 7.850 7 9.500 2 34.100 6
2022-01-07 St Jude Benefit Meet 2022 St. Charles Gymnastics Academy 7C XD Jr B 9.075 4 6.850 8 8.825 2 9.100 4 33.850 4
2021-12-10 St. Nick Invite 2021 St. Charles Gymnastics Academy 3A XD JrA 9.000 4T 7.550 7 7.950 6 8.200 6 32.700 7
2021-05-12 Region 5 Xcel Gold, Platinum & Diamond Champi St. Charles Gymnastics Academy 3B XP Jr B2 9.350 2T 8.475 19 8.550 23T 9.175 19T 35.550 20
2021-03-26 Illinois State Meet Level 9,10, Platinum, Dia St. Charles Gymnastics Academy 02 XP Jr C 9.300 2 8.150 18 8.750 13T 9.225 7T 35.425 13
2021-02-19 BIG Classic 2021 St. Charles Gymnastics Academy 10A XP Senior B 9.600 1 8.900 7T 8.400 4T 9.075 4T 35.975 4
2021-01-21 King Arthur Invitational St. Charles Gymnastics Academy 9 XP JR 8.750 3 8.200 9 9.000 4T 9.325 2 35.275 4
2020-02-28 MEGA Spring Invite 2020 St. Charles Gymnastics Academy 1 XG Junior B 8.725 10T 9.450 2 9.300 4 9.000 12T 36.475 4
2020-02-21 Great Western Invitational - Women's St. Charles Gymnastics Academy 07 XG Cowgirl 9.000 3T 9.450 11T 9.450 3 9.400 10 37.300 4T
2020-02-07 SCGA Classic St. Charles Gymnastics Academy 2 XG Jr B 9.350 1 8.900 6 8.975 3 9.300 3 36.525 2
2020-01-24 King Arthur Invitational St. Charles Gymnastics Academy 11 XG SR A 8.900 4 9.000 9 9.125 5 9.225 5T 36.250 5
2020-01-10 St Jude Benefit Meet St. Charles Gymnastics Academy 4C XG Jr C 9.350 1 9.175 6T 9.200 9T 9.400 6T 37.125 6
2019-12-13 2019 St Nick St. Charles Gymnastics Academy 7B XG SrA 9.100 1 9.125 8 9.200 2 9.250 8 36.675 4
2019-04-05 2019 Illinois XG, XP, XD State Championships St. Charles Gymnastics Academy 7 XG Ch E 9.050 13T 9.200 16T 9.350 5T 9.200 13 36.800 10
2019-03-01 NGCD Academy's 2019 Flip'r Invitational St. Charles Gymnastics Academy 2 XG Jr A 8.650 9 9.200 5 9.500 2 9.150 8 36.500 4
2019-02-15 Women's Midwest Open St. Charles Gymnastics Academy 13 XG Junior B 8.950 6 9.025 8 9.500 2 9.225 6 36.700 4
2019-02-08 IGI Chicago Style 2019 St. Charles Gymnastics Academy 43 XG 132 State Gold B 9.050 7 9.050 16 9.225 8 9.450 11 36.775 10
2019-01-25 King Arthur Invitational St. Charles Gymnastics Academy 18 XG JR 9.250 5T 9.000 8T 8.600 8 9.100 7T 35.950 8
2019-01-11 St Jude Benefit Meet St. Charles Gymnastics Academy 5C XG Jr B 9.325 4 8.650 13 9.000 5 9.100 5T 36.075 6
2018-12-07 St. Nick Invite 2018 St. Charles Gymnastics Academy 4 XG JrB 8.800 6T 9.300 2 8.900 4T 9.150 2 36.150 2
2018-04-06 XCEL State Championships St. Charles Gymnastics Academy 3B XG Ch A 8.450 22 9.325 13 9.000 10 9.050 22T 35.825 14
2018-02-23 Kinetic Classic St. Charles Gymnastics Academy 6 XG Younger 8.350 70T 8.650 67T 8.400 67T 9.050 53T 34.450 74
2018-02-16 Big Classic St. Charles Gymnastics Academy 9B XG Junior A 8.425 8 8.775 8 8.450 8 9.250 5T 34.900 8
2018-01-26 King Arthur Invitational St. Charles Gymnastics Academy 9 XG JRA 9.000 7 8.875 11 8.000 15T 8.400 14T 34.275 12
2018-01-12 St Jude Benefit Meet St. Charles Gymnastics Academy 9A XG JrA 8.675 12 8.950 7T 8.150 14T 8.900 10 34.675 13
2017-12-14 2017 Women's Hawaiian Pineapple Classic St. Charles Gymnastics Academy 7A XG Age10U 8.625 4 8.000 7 7.250 10 8.100 10 31.975 9
2017-12-01 Ultimate Wish Classic St. Charles Gymnastics Academy 13 XG JRA 8.725 3 9.250 5T 9.000 4T 8.650 15 35.625 6
2017-02-24 Kinetic Classic St. Charles Gymnastics Academy 5,6 4 All Ages 8.050 112T 0.000 131T 8.100 124 7.750 126T 23.900 131
2017-02-10 IGI Chicago Style Gymnastics Meet St. Charles Gymnastics Academy 621L 4 JrA 8.400 9 0.000 22 7.500 21 7.300 20 23.200 22
2017-01-20 2017 Bravo Classic St. Charles Gymnastics Academy 06B 4 9yrs 8.050 12T 0.000 19 8.200 18 7.800 17 24.050 19
2017-01-13 St Jude Benefit Meet St. Charles Gymnastics Academy 3A 4 Jr B 8.100 10 0.000 16T 8.550 10T 7.475 16 24.125 17
2016-12-15 2016 Hawaiian Pineapple Sanction St. Charles Gymnastics Academy 9A 4 Age 9 7.800 25 0.000 24T 8.800 17 8.000 22 24.600 24
2016-12-02 Ultimate Wish Classic St. Charles Gymnastics Academy 13 4 Jr A 8.350 11 0.000 18T 8.550 13 7.975 19 24.875 19
2016-01-22 King Arthur Invitational St. Charles Gymnastics Academy S7 3 Jr.B 8.900 13 7.650 15 8.700 11 8.250 15 33.500 14
2015-12-17 2015 Hawaiian Pineapple Classic St. Charles Gymnastics Academy 2B 3 Age 8 8.750 14T 7.500 17 8.275 11 0.000 19 24.525 19
Get your scores on
a t-shirt, pin, or hoodie